Macklin, Canada
Current Conditions -  °F | °C
As of 11:00 PM on Tuesday 21 Oct 2014 (Local Time) from CYKY Reporting Station
Rain Showers Rain Showers  
Wind Chill: 44°   Ceiling: 5000
Heat Index: 48°   Visibility: 12mi
Dew Point: 45°   Wind: 10mph
Humidity: 87%   Direction: 330°NNW
Pressure: 29.68"   Gusts: NA
Location:  52.33°N, 109.95°W
Report Text: CYKY 220500Z 33009KT 12SM -SHRA OVC050 09/07 A2968 RMK SC8 CVCTV CLD EMBD SLP059 DENSITY ALT 2300FT
Loading
Personal Weather Stations






























Interactive Weather Map New forecast layout! Learn more

10-Day Weather Forecast

Advertisements
Track Severe Weather on mobile